KEAU/EAU METAR and TAF weather

Enter ICAO airport designator
Station Type Date Time Source
KEAU METAR 2019/04/26 03:56 UTC NOAA

KEAU 260356Z AUTO 31011G19KT 10SM CLR 14/M03 A2981 RMK AO2 SLP094 T01441028


Station Type Date Time Source
KEAU Decoded METAR 2019/04/26 03:56 UTC NOAA

EAU CLAIRE CHIPPEWA VALLEY, WI, United States (KEAU) 44-52N 091-29W
Apr 25, 2019 - 11:56 PM EDT / 2019.04.26 0356 UTC
Wind: from the NW (310 degrees) at 13 MPH (11 KT) gusting to 22 MPH (19 KT):0
Visibility: 10 mile(s):0
Sky conditions: clear
Temperature: 57.9 F (14.4 C)
Dew Point: 27.0 F (-2.8 C)
Relative Humidity: 30%
Pressure (altimeter): 29.81 in. Hg (1009 hPa)
ob: KEAU 260356Z AUTO 31011G19KT 10SM CLR 14/M03 A2981 RMK AO2 SLP094 T01441028
cycle: 4

Station Type Date Time Source
KEAU TAF 2019/04/26 03:22 UTC NOAA

TAF
AMD KEAU 260320Z 2603/2624 32009G15KT P6SM FEW100
FM261500 32013G24KT P6SM SKC

Example: see airport list